Terminal Aerodrome Forecast
Issued by NWS

Home | Current Version | Previous Version | Text Only | Print | Product List | Glossary On
Versions: 1 2 3 4 5 6 7 8 9 10 11 12 13 14 15 16 17
586
FTUS46 KMTR 282341
TAFSTS
TAF
KSTS 282341Z 2900/2924 17008KT P6SM SKC
     FM290400 17004KT P6SM SKC
      TEMPO 2912/2915 1/4SM FG VV001
     FM291600 VRB03KT P6SM SKC
     FM292100 30006KT P6SM SCT300=

USA.gov is the U.S. government's official web portal to all federal, state and local government web resources and services.